ナイトフライトーーーー!!!

LUXURY FLIGHT

080-7560-1817

羽田空港本店: 所在地: 東京都大田区羽田空港3-3-2    セントレア店: 所在地: 愛知県常滑市セントレア1-1      HICityファイター店: 所在地: 東京都大田区羽田空港1-1-4
           第1旅客ターミナル5階                  FLIGHT OF DREAMS FLIGHT PARK                 HANEDA INNOVATION CITY ZONE-J 2-5
      営業時間: 10:00~20:00 定休日: 年中無休         営業時間: 10:00~20:00 定休日: 年中無休             営業時間: 10:00~20:00 定休日: 年中無休
      電話番号: 080-7560-1817                  電話番号: 080-4945-5666                     電話番号: 03-5579-7980

lv

ナイトフライトーーーー!!!

STAFF BLOG

2019/12/08 ナイトフライトーーーー!!!

こんばんはーーーー

 

寒さが一段と厳しくなって参りました!!!

 

ここ数日、熱い缶コーヒーとマブダチ状態が続いている私。

 

本日の羽田のMETARは…

RJTT 080500Z 09006KT 9999 FEW030 12/03 Q1021 NOSIG RMK 1CU030 A3017

 

今回はご夫婦でナイトフライトをしてくださったお客様をご紹介!!

 

 

img_3940

 

初めてのフライト&外の景色が見づらい状況の中で、

なんとか頑張っていただきました!!

 

着陸時、私がランディングライトをつけ忘れてしまい、

さらに困難な状況で着陸していただいたのは、誰にも内緒です!笑

 

どんな状況でもランディングチェックリストと

状況に応じたライトの点灯を忘れるまい!!

 

と、心に誓った今日この頃。

 

それでも忘れているようでしたら、何なりとお叱りくださいませ。

 

 

あ。

 

でも私、褒めれられて伸びるタイプでーす!

 

誰も聞いちゃいないですよね。笑

すみまてん。

 

 

大変な状況の中ではありましたが、お二人が楽しそうにフライトされているのを見て、

心から癒された私たちでございました。

 

 

この度はご来店誠にありがとうございました!!

 

次回のご来店を心よりお待ちいたしております。

 

 

「感謝」

TOP